A- A+ FrançaisEnglishEspañol中国

le plus proche LFBT Tarbes-Lourdes-PyrénéesLFBO Toulouse-BlagnacLFBD Bordeaux-MerignacLFHZ Sallanches-Mont-Blanc

manche à air

La météo aéronautique pour les pilotes, la préparation du vol avec les METAR (METeorological Aerodrome Report, message d'observation des conditions météorologiques pour l'aviation) et Les TAF (Terminal Aerodrome Forecast : message de prévision à court terme des conditions météorologiques pour l'aviation). Et les autres ressources comme les VAC (Visual Approch Chart) et les NOTAM (Notice To Airman) pour préprer les vols.

Aéroport Akure (Nigéria) / OACI DNAK/ IATA AKR

L'altitude de l'aéroport Akure est de 335 m=1099 ft. Il est situé à proximité de Akure (Nigéria). La météo générale à 5 jours est disponible pour Ondo situé à 54.1 km.

METAR de l'aéroport Akure - DNAK

DNAK 221300Z 00000KT 9999 CAVOK 34/13 Q1012

Décodage du METAR de l'aéroport Akure (NG)

METAR émis par DNAK le dimanche 22 décembre 2019 à 13:00 heure TU. Attention ce METAR est obsolète car il a été émis il y a 4 heure et 20 minutes.

La visibilité est de supérieure à 10 km=supérieure à 6.2 sm.

La température est de 34°C=93 °F et le point rosée est de 13°C=55 °F . Ce qui correspond à 28% d'humidité relative.

Le QNH est de 1012 hPa=29.88 inHg

Vent de 0 kt=0 km/h, orienté à 0°.

Pas de nuages.

9999

TAF de l'aéroport Akure - DNAK

DNAK 021100Z 0212/0318 02013KT CAVOK BECMG 0216/0218 VRB02KT 7000 NSC TEMPO 0303/0309 2000 HZ PROB30 0305/0308 1000

DNAK 021100Z 0212/0318 02013KT visibilité supérieure à 10km, aucun nuage à une hauteur inférieure à 5000 ft ou sous l'altitude minimale de secteur et aucun cumulonimbus ou cumulus bourgeonnant, quelle que soit leur altitude devenant 0216/0218 VRB02KT 7000 NSC temporairement 0303/0309 2000 brume sèche probabilité de 30% d'avoir 0305/0308 1000

Aéroport à proximité de Akure

Météo générale à 5 jours à Ondo (54.1 km)DNOS Aéroport Oshogbo (108 km)DNBE Aéroport Benin City (109 km)DNIB Aéroport Ibadan (146 km)DNIL Aéroport Ilorin (160 km)DNBI Aéroport Bida (221 km)DNMM Aéroport Lagos Murtala Muhammed (231 km)

Vue aérienne de l'aéroport Akure

NOTAM de l'aéroport Akure

Les NOTAM sont fournis sans aucune garantie de leur actualité. Le pilote est le seul responsable de la vérification de sa validité avant de l'utiliser opérationnellement pour préparer un vol ou l'utiliser lors de sa navigation.

Pas de NOTAM

Sources des données